Terminal Aerodrome Forecast
Issued by NWS

Home | Current Version | Previous Version | Text Only | Print | Product List | Glossary On
Versions: 1 2 3 4 5 6 7 8 9 10 11 12 13 14 15 16 17 18 19 20 21
920
FTUS44 KLIX 031120
TAFMSY
TAF
KMSY 031120Z 0312/0412 01007KT 5SM BR OVC005
     FM031500 01008KT P6SM BKN015
     FM031700 36007KT P6SM BKN040
     FM032300 34006KT P6SM SCT070
     FM040200 35011KT P6SM SCT120=

USA.gov is the U.S. government's official web portal to all federal, state and local government web resources and services.